Time;durP1;ratioP1;P1;durP2;ratioP2;P2;SDS_P1;SDS_P2;PMS_P1;PMS_P2;Temp;Humidity;BMP_temperature;BMP_pressure;BME280_temperature;BME280_humidity;BME280_pressure;Samples;Min_cycle;Max_cycle;Signal;HPM_P1;HPM_P2
2023/10/28 00:00:46;;;;;;;5.72;3.45;;;9.90;99.90;;;;;;5020125;28;20064;-67
2023/10/28 00:03:12;;;;;;;5.03;2.75;;;9.80;99.90;;;;;;5018618;28;20041;-67
2023/10/28 00:05:38;;;;;;;4.05;2.70;;;9.70;99.90;;;;;;5009560;28;20086;-67
2023/10/28 00:08:05;;;;;;;6.20;3.72;;;9.70;99.90;;;;;;5016999;28;20054;-67
2023/10/28 00:10:35;;;;;;;4.95;3.33;;;9.60;99.90;;;;;;5001233;28;20048;-67
2023/10/28 00:13:01;;;;;;;4.30;2.55;;;9.60;99.90;;;;;;5014036;28;20044;-67
2023/10/28 00:15:27;;;;;;;5.63;3.00;;;9.60;99.90;;;;;;5013352;28;20045;-68
2023/10/28 00:17:53;;;;;;;6.45;3.15;;;9.50;99.90;;;;;;5023213;28;20402;-68
2023/10/28 00:20:21;;;;;;;5.55;3.30;;;9.50;99.90;;;;;;5016371;28;20044;-67
2023/10/28 00:22:53;;;;;;;4.65;2.75;;;9.40;99.90;;;;;;5013099;28;20041;-67
2023/10/28 00:25:22;;;;;;;7.75;3.25;;;9.40;99.90;;;;;;5016731;28;20042;-67
2023/10/28 00:27:49;;;;;;;6.68;3.42;;;9.40;99.90;;;;;;5021591;28;20451;-68
2023/10/28 00:30:15;;;;;;;7.30;4.15;;;9.40;99.90;;;;;;4998744;28;20050;-68
2023/10/28 00:32:42;;;;;;;6.53;4.18;;;9.50;99.90;;;;;;5012629;28;20091;-67
2023/10/28 00:35:08;;;;;;;7.30;3.90;;;9.50;99.90;;;;;;5014100;28;20060;-67
2023/10/28 00:37:37;;;;;;;6.10;3.65;;;9.50;99.90;;;;;;5019297;28;20037;-68
2023/10/28 00:40:06;;;;;;;6.65;3.33;;;9.50;99.90;;;;;;4998644;28;20064;-67
2023/10/28 00:42:35;;;;;;;6.72;3.55;;;9.50;99.90;;;;;;5011628;28;20055;-67
2023/10/28 00:45:06;;;;;;;7.57;3.40;;;9.50;99.90;;;;;;5005377;28;20124;-67
2023/10/28 00:47:38;;;;;;;6.40;3.08;;;9.50;99.90;;;;;;5019894;28;20502;-67
2023/10/28 00:50:09;;;;;;;5.10;2.90;;;9.40;99.90;;;;;;5012611;28;20046;-67
2023/10/28 00:52:40;;;;;;;5.63;3.03;;;9.40;99.90;;;;;;5013434;28;20049;-67
2023/10/28 00:55:10;;;;;;;6.55;2.58;;;9.40;99.90;;;;;;5002375;28;20502;-67
2023/10/28 00:57:41;;;;;;;5.55;3.50;;;9.50;99.90;;;;;;4997862;28;20053;-67
2023/10/28 01:00:08;;;;;;;4.55;3.13;;;9.50;99.90;;;;;;5004547;28;20158;-67
2023/10/28 01:02:35;;;;;;;7.55;3.60;;;9.50;99.90;;;;;;5011239;28;20034;-67
2023/10/28 01:05:02;;;;;;;6.50;3.22;;;9.40;99.90;;;;;;4990238;28;20391;-67
2023/10/28 01:07:28;;;;;;;7.32;3.83;;;9.50;99.90;;;;;;5004419;28;20064;-67
2023/10/28 01:09:55;;;;;;;3.92;2.63;;;9.40;99.90;;;;;;5021040;28;20050;-67
2023/10/28 01:12:23;;;;;;;4.88;3.00;;;9.40;99.90;;;;;;5013371;28;20041;-67
2023/10/28 01:14:50;;;;;;;4.97;2.63;;;9.40;99.90;;;;;;5018624;28;20483;-67
2023/10/28 01:17:16;;;;;;;5.13;2.70;;;9.40;99.90;;;;;;5020494;28;20087;-67
2023/10/28 01:19:42;;;;;;;6.00;2.90;;;9.40;99.90;;;;;;5007145;28;20041;-67
2023/10/28 01:22:08;;;;;;;6.55;3.72;;;9.40;99.90;;;;;;5014593;28;20044;-67
2023/10/28 01:24:35;;;;;;;4.68;2.90;;;9.40;99.90;;;;;;5017216;28;20041;-67
2023/10/28 01:27:02;;;;;;;9.15;4.05;;;9.30;99.90;;;;;;5023276;28;20117;-67
2023/10/28 01:29:28;;;;;;;6.45;4.18;;;9.30;99.90;;;;;;5027195;28;20439;-67
2023/10/28 01:31:55;;;;;;;6.25;3.60;;;9.30;99.90;;;;;;4998428;28;20442;-67
2023/10/28 01:34:22;;;;;;;7.43;3.38;;;9.40;99.90;;;;;;5016940;28;20045;-67
2023/10/28 01:36:48;;;;;;;6.28;2.97;;;9.30;99.90;;;;;;5022475;28;20155;-67
2023/10/28 01:39:15;;;;;;;4.57;2.90;;;9.30;99.90;;;;;;4993773;28;20042;-67
2023/10/28 01:41:42;;;;;;;4.65;3.15;;;9.30;99.90;;;;;;5014995;28;20103;-67
2023/10/28 01:44:08;;;;;;;7.03;3.63;;;9.30;99.90;;;;;;5016302;28;20081;-67
2023/10/28 01:46:34;;;;;;;5.85;2.78;;;9.30;99.90;;;;;;5017303;28;20065;-67
2023/10/28 01:49:00;;;;;;;7.93;2.83;;;9.20;99.90;;;;;;4994969;28;20502;-67
2023/10/28 01:51:26;;;;;;;9.38;2.63;;;9.20;99.90;;;;;;5019944;28;20099;-68
2023/10/28 01:53:52;;;;;;;3.85;2.40;;;9.10;99.90;;;;;;5019538;28;20042;-68
2023/10/28 01:56:18;;;;;;;5.60;2.55;;;9.10;99.90;;;;;;5015541;28;20108;-68
2023/10/28 01:58:43;;;;;;;6.30;2.63;;;9.10;99.90;;;;;;5019843;28;20038;-68
2023/10/28 02:01:09;;;;;;;7.60;3.80;;;9.10;99.90;;;;;;5025270;28;20436;-68
2023/10/28 02:03:35;;;;;;;9.82;3.25;;;9.00;99.90;;;;;;5020937;28;20120;-68
2023/10/28 02:06:01;;;;;;;5.70;3.20;;;9.00;99.90;;;;;;5014517;28;20041;-68
2023/10/28 02:08:26;;;;;;;6.75;3.38;;;9.00;99.90;;;;;;5009937;28;20053;-68
2023/10/28 02:10:52;;;;;;;3.97;2.25;;;8.90;99.90;;;;;;5014441;28;20043;-68
2023/10/28 02:13:18;;;;;;;4.40;2.97;;;8.90;99.90;;;;;;5002170;28;20046;-68
2023/10/28 02:15:51;;;;;;;4.07;2.45;;;8.90;99.90;;;;;;4996053;28;20061;-68
2023/10/28 02:18:22;;;;;;;2.83;1.95;;;8.90;99.90;;;;;;4995389;28;20456;-68
2023/10/28 02:20:48;;;;;;;4.25;2.28;;;8.90;99.90;;;;;;4996666;28;20100;-68
2023/10/28 02:23:14;;;;;;;2.90;1.52;;;8.90;99.90;;;;;;5015971;28;20077;-68
2023/10/28 02:25:43;;;;;;;3.28;2.13;;;8.90;99.90;;;;;;5012872;28;20049;-68
2023/10/28 02:28:09;;;;;;;5.40;3.15;;;8.90;99.90;;;;;;5012247;28;20038;-68
2023/10/28 02:30:40;;;;;;;8.57;2.22;;;8.90;99.90;;;;;;5004580;28;20512;-68
2023/10/28 02:33:06;;;;;;;2.60;1.80;;;8.90;99.90;;;;;;5018494;28;20477;-68
2023/10/28 02:35:33;;;;;;;2.33;1.48;;;8.90;99.90;;;;;;5013352;28;20038;-68
2023/10/28 02:37:59;;;;;;;2.95;1.77;;;8.80;99.90;;;;;;5011565;28;20128;-68
2023/10/28 02:40:25;;;;;;;8.93;1.80;;;8.80;99.90;;;;;;5017694;28;20128;-68
2023/10/28 02:42:50;;;;;;;2.65;1.73;;;8.80;99.90;;;;;;5002426;28;20044;-68
2023/10/28 02:45:16;;;;;;;5.88;2.20;;;8.80;99.90;;;;;;5010641;28;20073;-68
2023/10/28 02:47:42;;;;;;;6.28;2.55;;;8.70;99.90;;;;;;5012496;28;20363;-68
2023/10/28 02:50:08;;;;;;;3.75;2.53;;;8.70;99.90;;;;;;5014404;28;20543;-68
2023/10/28 02:52:34;;;;;;;2.35;1.25;;;8.70;99.90;;;;;;5019637;28;20071;-68
2023/10/28 02:55:00;;;;;;;3.28;2.47;;;8.70;99.90;;;;;;5016242;28;20442;-68
2023/10/28 02:57:26;;;;;;;5.88;2.50;;;8.70;99.90;;;;;;5013193;28;20350;-68
2023/10/28 02:59:51;;;;;;;2.83;1.35;;;8.70;99.90;;;;;;5018920;28;20044;-68
2023/10/28 03:02:17;;;;;;;3.65;1.80;;;8.70;99.90;;;;;;4998227;28;20149;-68
2023/10/28 03:04:43;;;;;;;3.50;1.52;;;8.60;99.90;;;;;;4991494;28;20390;-68
2023/10/28 03:07:09;;;;;;;2.55;1.42;;;8.70;99.90;;;;;;4994774;28;20046;-68
2023/10/28 03:09:34;;;;;;;2.55;1.48;;;8.60;99.90;;;;;;5016057;28;20065;-68
2023/10/28 03:12:00;;;;;;;4.68;1.67;;;8.60;99.90;;;;;;5022663;28;20034;-68
2023/10/28 03:14:26;;;;;;;3.35;1.88;;;8.60;99.90;;;;;;4992095;28;20049;-68
2023/10/28 03:16:52;;;;;;;2.75;2.00;;;8.60;99.90;;;;;;5016519;28;20443;-68
2023/10/28 03:19:17;;;;;;;5.95;2.00;;;8.60;99.90;;;;;;4999287;28;20037;-68
2023/10/28 03:21:43;;;;;;;4.35;2.15;;;8.70;99.90;;;;;;5021477;28;20041;-68
2023/10/28 03:24:09;;;;;;;1.85;1.58;;;8.80;99.90;;;;;;4998488;28;20081;-68
2023/10/28 03:26:35;;;;;;;1.50;1.05;;;8.70;99.90;;;;;;5001016;28;20474;-68
2023/10/28 03:29:00;;;;;;;4.82;1.25;;;8.80;99.90;;;;;;5021127;28;20482;-68
2023/10/28 03:31:26;;;;;;;4.93;1.85;;;8.80;99.90;;;;;;5021948;28;20120;-68
2023/10/28 03:33:52;;;;;;;2.47;1.65;;;8.80;99.90;;;;;;5019039;28;20196;-68
2023/10/28 03:36:18;;;;;;;2.42;1.45;;;8.80;99.90;;;;;;5015498;28;20037;-68
2023/10/28 03:38:44;;;;;;;8.30;1.48;;;8.80;99.90;;;;;;5022043;28;20033;-68
2023/10/28 03:41:11;;;;;;;2.22;1.73;;;8.90;99.90;;;;;;5025055;28;20114;-68
2023/10/28 03:43:38;;;;;;;1.75;1.38;;;8.90;99.90;;;;;;5029626;28;20037;-67
2023/10/28 03:46:04;;;;;;;2.33;1.38;;;8.90;99.90;;;;;;5019221;28;20133;-68
2023/10/28 03:48:30;;;;;;;1.83;1.52;;;8.90;99.90;;;;;;5021950;28;20037;-67
2023/10/28 03:51:01;;;;;;;10.52;1.95;;;8.90;99.90;;;;;;5018496;28;20042;-68
2023/10/28 03:53:28;;;;;;;2.95;1.85;;;8.90;99.90;;;;;;4995750;28;20563;-68
2023/10/28 03:55:53;;;;;;;4.13;1.85;;;8.90;99.90;;;;;;5000668;28;20041;-68
2023/10/28 03:58:19;;;;;;;1.95;1.23;;;8.90;99.90;;;;;;5022264;28;20048;-68
2023/10/28 04:00:45;;;;;;;3.17;1.88;;;9.00;99.90;;;;;;4999774;28;20052;-68
2023/10/28 04:03:12;;;;;;;2.50;1.17;;;9.00;99.90;;;;;;5013546;28;20422;-69
2023/10/28 04:05:38;;;;;;;2.33;1.40;;;9.10;99.90;;;;;;5016904;28;20052;-68
2023/10/28 04:08:05;;;;;;;2.35;1.58;;;9.00;99.90;;;;;;5020989;28;20058;-68
2023/10/28 04:10:31;;;;;;;1.85;1.38;;;9.10;99.90;;;;;;5014667;28;20058;-69
2023/10/28 04:12:56;;;;;;;1.48;1.10;;;9.10;99.90;;;;;;4987312;28;20081;-68
2023/10/28 04:15:22;;;;;;;3.40;1.80;;;9.10;99.90;;;;;;5002148;28;20502;-68
2023/10/28 04:17:48;;;;;;;4.45;1.80;;;9.30;99.90;;;;;;5005973;28;20475;-68
2023/10/28 04:20:14;;;;;;;2.97;1.80;;;9.20;99.90;;;;;;4995440;28;20053;-68
2023/10/28 04:22:40;;;;;;;7.32;2.22;;;9.20;99.90;;;;;;5000003;28;20050;-68
2023/10/28 04:25:06;;;;;;;2.95;2.15;;;9.30;99.90;;;;;;5022663;28;20208;-68
2023/10/28 04:27:34;;;;;;;3.15;1.95;;;9.30;99.90;;;;;;5017881;28;20041;-68
2023/10/28 04:30:03;;;;;;;2.47;1.58;;;9.30;99.90;;;;;;5017973;28;20046;-68
2023/10/28 04:32:30;;;;;;;5.78;1.48;;;9.30;99.90;;;;;;5013425;28;20121;-67
2023/10/28 04:34:56;;;;;;;2.63;1.73;;;9.40;99.90;;;;;;5003871;28;20450;-68
2023/10/28 04:37:21;;;;;;;3.42;1.58;;;9.40;99.90;;;;;;5017751;28;20045;-68
2023/10/28 04:39:48;;;;;;;3.67;2.03;;;9.40;99.90;;;;;;5012708;28;20127;-68
2023/10/28 04:42:14;;;;;;;5.97;2.42;;;9.50;99.90;;;;;;5001071;28;20041;-68
2023/10/28 04:44:39;;;;;;;4.15;1.75;;;9.50;99.90;;;;;;5002619;28;20056;-69
2023/10/28 04:47:06;;;;;;;4.72;1.38;;;9.50;99.90;;;;;;5020563;28;20073;-68
2023/10/28 04:49:31;;;;;;;3.22;1.80;;;9.60;99.90;;;;;;4997294;28;20124;-68
2023/10/28 04:51:57;;;;;;;3.53;1.92;;;9.50;99.90;;;;;;4999263;28;20037;-68
2023/10/28 04:54:23;;;;;;;2.92;2.15;;;9.50;99.90;;;;;;5023240;28;20046;-68
2023/10/28 04:56:51;;;;;;;5.90;1.63;;;9.60;99.90;;;;;;4996443;28;20103;-68
2023/10/28 04:59:17;;;;;;;2.30;1.55;;;9.60;99.90;;;;;;5002074;28;20077;-68
2023/10/28 05:01:42;;;;;;;2.17;1.40;;;9.60;99.90;;;;;;5017251;28;20074;-68
2023/10/28 05:04:09;;;;;;;2.17;1.60;;;9.60;99.90;;;;;;5021062;28;20068;-68
2023/10/28 05:06:35;;;;;;;2.35;1.55;;;9.60;99.90;;;;;;5021694;28;20049;-68
2023/10/28 05:09:01;;;;;;;1.65;0.95;;;9.60;99.90;;;;;;5015945;28;20487;-68
2023/10/28 05:11:27;;;;;;;7.78;2.25;;;9.60;99.90;;;;;;4986549;28;20133;-68
2023/10/28 05:13:53;;;;;;;5.03;2.40;;;9.60;99.90;;;;;;5024046;28;20038;-68
2023/10/28 05:16:19;;;;;;;8.77;1.67;;;9.60;99.90;;;;;;5017996;28;20038;-68
2023/10/28 05:18:48;;;;;;;3.88;1.45;;;9.70;99.90;;;;;;4994211;28;20038;-68
2023/10/28 05:21:13;;;;;;;7.57;1.83;;;9.70;99.90;;;;;;5017094;28;20436;-68
2023/10/28 05:23:39;;;;;;;4.75;1.85;;;9.70;99.90;;;;;;5022208;28;20041;-68
2023/10/28 05:26:05;;;;;;;3.13;1.13;;;9.70;99.90;;;;;;5024417;28;20254;-68
2023/10/28 05:28:31;;;;;;;2.42;1.92;;;9.70;99.90;;;;;;5004067;28;20046;-68
2023/10/28 05:30:57;;;;;;;4.38;2.03;;;9.70;99.90;;;;;;4996953;28;20037;-68
2023/10/28 05:33:22;;;;;;;2.88;1.77;;;9.80;99.90;;;;;;5022610;28;20033;-68
2023/10/28 05:35:51;;;;;;;2.55;1.70;;;9.80;99.90;;;;;;5018688;28;20049;-68
2023/10/28 05:38:17;;;;;;;4.95;1.77;;;9.80;99.90;;;;;;5012219;28;20466;-68
2023/10/28 05:40:43;;;;;;;4.13;1.38;;;9.80;99.90;;;;;;4998051;28;20275;-68
2023/10/28 05:43:09;;;;;;;3.28;1.60;;;9.70;99.90;;;;;;5019341;28;20046;-68
2023/10/28 05:45:35;;;;;;;2.85;1.33;;;9.80;99.90;;;;;;5004402;28;20096;-68
2023/10/28 05:48:01;;;;;;;2.33;1.20;;;9.80;99.90;;;;;;5011985;28;20091;-68
2023/10/28 05:50:27;;;;;;;10.98;1.90;;;9.80;99.90;;;;;;5019436;28;20046;-68
2023/10/28 05:52:54;;;;;;;11.00;1.65;;;9.80;99.90;;;;;;5021018;28;20500;-68
2023/10/28 05:55:20;;;;;;;3.15;1.75;;;9.80;99.90;;;;;;4996581;28;20434;-68
2023/10/28 05:57:45;;;;;;;3.67;1.90;;;9.80;99.90;;;;;;5009573;28;20183;-68
2023/10/28 06:00:13;;;;;;;1.65;1.40;;;9.80;99.90;;;;;;5018770;28;20378;-67
2023/10/28 06:02:39;;;;;;;7.15;1.08;;;9.90;99.90;;;;;;5000848;28;20558;-67
2023/10/28 06:05:06;;;;;;;2.00;1.35;;;9.90;99.90;;;;;;4994609;28;20061;-68
2023/10/28 06:07:32;;;;;;;1.63;1.17;;;9.90;99.90;;;;;;5013555;28;20057;-67
2023/10/28 06:09:58;;;;;;;1.40;1.13;;;9.90;99.90;;;;;;5016400;28;20398;-67
2023/10/28 06:12:25;;;;;;;1.23;0.85;;;9.90;99.90;;;;;;5022355;28;20048;-67
2023/10/28 06:14:51;;;;;;;2.30;1.38;;;9.90;99.90;;;;;;5008668;28;20052;-67
2023/10/28 06:17:17;;;;;;;2.92;1.05;;;9.90;99.90;;;;;;5011891;28;20069;-67
2023/10/28 06:19:43;;;;;;;1.38;0.93;;;9.90;99.90;;;;;;5015132;28;20045;-67
2023/10/28 06:22:11;;;;;;;1.48;0.90;;;9.90;99.90;;;;;;4997737;28;20045;-67
2023/10/28 06:24:40;;;;;;;1.85;0.70;;;9.90;99.90;;;;;;5011482;28;20045;-68
2023/10/28 06:27:07;;;;;;;2.47;1.27;;;9.80;99.90;;;;;;5013699;28;20086;-66
2023/10/28 06:29:32;;;;;;;1.08;0.70;;;9.80;99.90;;;;;;5018000;28;20037;-66
2023/10/28 06:31:58;;;;;;;3.20;0.88;;;9.90;99.90;;;;;;5015889;28;20418;-67
2023/10/28 06:34:27;;;;;;;2.55;1.05;;;9.80;99.90;;;;;;5023412;28;20083;-66
2023/10/28 06:36:56;;;;;;;2.25;1.13;;;9.80;99.90;;;;;;5012887;28;20045;-66
2023/10/28 06:39:22;;;;;;;1.15;1.05;;;9.90;99.90;;;;;;5018811;28;20066;-66
2023/10/28 06:41:48;;;;;;;1.55;0.75;;;9.80;99.90;;;;;;5014583;28;20041;-66
2023/10/28 06:44:15;;;;;;;7.03;1.73;;;9.80;99.90;;;;;;4995104;28;20061;-66
2023/10/28 06:46:40;;;;;;;3.38;1.42;;;9.90;99.90;;;;;;5013215;28;20437;-66
2023/10/28 06:49:08;;;;;;;0.75;0.60;;;9.90;99.90;;;;;;5019231;28;20069;-66
2023/10/28 06:51:33;;;;;;;1.60;0.90;;;9.90;99.90;;;;;;5014414;28;20416;-66
2023/10/28 06:53:59;;;;;;;7.68;4.65;;;9.80;99.90;;;;;;5024279;28;20112;-66
2023/10/28 06:56:25;;;;;;;1.73;1.05;;;9.90;99.90;;;;;;5006230;28;20219;-66
2023/10/28 06:58:51;;;;;;;3.35;1.33;;;9.80;99.90;;;;;;5019229;28;20125;-67
2023/10/28 07:01:18;;;;;;;0.80;0.57;;;9.80;99.90;;;;;;5002737;28;20065;-66
2023/10/28 07:03:45;;;;;;;1.08;0.30;;;9.90;99.90;;;;;;5013819;28;20046;-66
2023/10/28 07:06:14;;;;;;;1.33;0.90;;;9.90;99.90;;;;;;5015714;28;20484;-66
2023/10/28 07:08:46;;;;;;;2.00;1.20;;;9.90;99.90;;;;;;5020972;28;20496;-66
2023/10/28 07:11:13;;;;;;;3.72;0.70;;;9.90;99.90;;;;;;5017799;28;20029;-67
2023/10/28 07:13:39;;;;;;;1.90;0.80;;;9.90;99.90;;;;;;5014217;28;20041;-66
2023/10/28 07:16:06;;;;;;;0.60;0.47;;;9.90;99.90;;;;;;5018958;28;20059;-67
2023/10/28 07:18:33;;;;;;;1.25;0.90;;;10.00;99.90;;;;;;5024187;28;20045;-66
2023/10/28 07:21:00;;;;;;;2.83;1.20;;;9.90;99.90;;;;;;5009829;28;20051;-66
2023/10/28 07:23:30;;;;;;;1.17;0.68;;;10.00;99.90;;;;;;5001275;28;20065;-66
2023/10/28 07:25:57;;;;;;;1.77;1.05;;;10.00;99.90;;;;;;5018700;28;20103;-66
2023/10/28 07:28:24;;;;;;;1.45;0.93;;;10.00;99.90;;;;;;5025720;28;20053;-65
2023/10/28 07:30:51;;;;;;;2.03;0.88;;;10.00;99.90;;;;;;5029734;28;20045;-66
2023/10/28 07:33:24;;;;;;;1.23;0.75;;;10.00;99.90;;;;;;5001340;28;20037;-66
2023/10/28 07:35:52;;;;;;;0.60;0.60;;;10.00;99.90;;;;;;5019403;28;20053;-66
2023/10/28 07:38:19;;;;;;;8.15;1.00;;;10.00;99.90;;;;;;5000294;28;20123;-67
2023/10/28 07:40:45;;;;;;;2.85;0.90;;;10.00;99.90;;;;;;5014337;28;20050;-67
2023/10/28 07:43:12;;;;;;;1.70;0.90;;;10.00;99.90;;;;;;5018294;28;20398;-67
2023/10/28 07:45:39;;;;;;;4.35;1.00;;;10.00;99.90;;;;;;5024177;28;20033;-67
2023/10/28 07:48:06;;;;;;;0.80;0.50;;;10.00;99.90;;;;;;5006080;28;20412;-66
2023/10/28 07:50:33;;;;;;;0.93;0.63;;;10.00;99.90;;;;;;4978949;28;20041;-65
2023/10/28 07:52:59;;;;;;;3.10;0.50;;;10.10;99.90;;;;;;5018960;28;20113;-66
2023/10/28 07:55:25;;;;;;;0.63;0.38;;;10.10;99.90;;;;;;5001290;28;20518;-66
2023/10/28 07:57:51;;;;;;;1.55;0.45;;;10.10;99.90;;;;;;5000527;28;20194;-66
2023/10/28 08:00:17;;;;;;;2.58;0.50;;;10.20;99.90;;;;;;4982613;28;20057;-66
2023/10/28 08:02:46;;;;;;;1.58;0.63;;;10.20;99.90;;;;;;5017175;28;20041;-66
2023/10/28 08:05:12;;;;;;;1.00;0.77;;;10.20;99.90;;;;;;5021489;28;20029;-66
2023/10/28 08:07:38;;;;;;;0.50;0.40;;;10.20;99.90;;;;;;5006848;28;20046;-66
2023/10/28 08:10:05;;;;;;;1.23;0.60;;;10.20;99.90;;;;;;4985600;28;20094;-65
2023/10/28 08:12:31;;;;;;;3.35;0.68;;;10.30;99.90;;;;;;4997819;28;20045;-66
2023/10/28 08:15:00;;;;;;;3.35;0.85;;;10.30;99.90;;;;;;5022267;28;20486;-68
2023/10/28 08:17:26;;;;;;;6.97;1.08;;;10.30;99.90;;;;;;5012783;28;20134;-67
2023/10/28 08:19:52;;;;;;;3.88;0.73;;;10.30;99.90;;;;;;5013010;28;20038;-67
2023/10/28 08:22:18;;;;;;;1.15;0.63;;;10.40;99.90;;;;;;5016060;28;20038;-67
2023/10/28 08:24:44;;;;;;;2.35;0.60;;;10.50;99.90;;;;;;5020950;28;20419;-66
2023/10/28 08:27:10;;;;;;;3.50;0.68;;;10.50;99.90;;;;;;5015094;28;20037;-67
2023/10/28 08:29:36;;;;;;;1.25;0.50;;;10.50;99.90;;;;;;5015079;28;20057;-66
2023/10/28 08:32:02;;;;;;;0.50;0.30;;;10.50;99.90;;;;;;5017898;28;20088;-67
2023/10/28 08:34:27;;;;;;;0.90;0.60;;;10.50;99.90;;;;;;5017410;28;20156;-66
2023/10/28 08:36:53;;;;;;;8.15;0.80;;;10.60;99.90;;;;;;4997461;28;20045;-67
2023/10/28 08:39:19;;;;;;;0.77;0.47;;;10.60;99.90;;;;;;4995185;28;20096;-66
2023/10/28 08:41:49;;;;;;;0.60;0.43;;;10.60;99.90;;;;;;5020666;28;20067;-67
2023/10/28 08:44:18;;;;;;;0.70;0.50;;;10.60;99.90;;;;;;5001886;28;20048;-66
2023/10/28 08:46:45;;;;;;;0.50;0.30;;;10.60;99.90;;;;;;5003868;28;20038;-66
2023/10/28 08:49:15;;;;;;;1.52;0.50;;;10.70;99.90;;;;;;5012460;28;20053;-67
2023/10/28 08:51:47;;;;;;;1.52;0.80;;;10.70;99.90;;;;;;5006975;28;20477;-67
2023/10/28 08:54:16;;;;;;;1.05;0.40;;;10.70;99.90;;;;;;4999546;28;20042;-66
2023/10/28 08:56:43;;;;;;;0.95;0.50;;;10.60;99.90;;;;;;4997773;28;20041;-67
2023/10/28 08:59:10;;;;;;;8.00;0.60;;;10.60;99.90;;;;;;5013345;28;20169;-67
2023/10/28 09:01:36;;;;;;;1.05;0.47;;;10.70;99.90;;;;;;5020784;28;20037;-67
2023/10/28 09:04:05;;;;;;;0.65;0.45;;;10.70;99.90;;;;;;5019905;28;20494;-67
2023/10/28 09:06:32;;;;;;;0.65;0.50;;;10.80;99.90;;;;;;5010311;28;20052;-67
2023/10/28 09:08:59;;;;;;;0.82;0.45;;;10.80;99.90;;;;;;4974737;28;1120041;-67
2023/10/28 09:11:25;;;;;;;0.75;0.55;;;10.90;99.90;;;;;;5004101;28;20038;-67
2023/10/28 09:13:51;;;;;;;0.68;0.40;;;10.90;99.90;;;;;;5004323;28;20042;-66
2023/10/28 09:16:17;;;;;;;0.60;0.40;;;10.90;99.90;;;;;;4994567;28;20455;-66
2023/10/28 09:18:44;;;;;;;1.40;0.82;;;11.00;99.90;;;;;;5014379;28;20092;-66
2023/10/28 09:21:11;;;;;;;1.25;0.45;;;11.00;99.90;;;;;;5017838;28;20122;-67
2023/10/28 09:23:37;;;;;;;1.00;0.40;;;11.00;99.90;;;;;;5022032;28;20504;-67
2023/10/28 09:26:04;;;;;;;0.65;0.40;;;11.00;99.90;;;;;;5012714;28;20459;-67
2023/10/28 09:28:31;;;;;;;0.77;0.60;;;11.10;99.90;;;;;;4998336;28;20066;-66
2023/10/28 09:30:58;;;;;;;1.08;0.40;;;11.10;99.90;;;;;;5004524;28;20045;-66
2023/10/28 09:33:24;;;;;;;1.17;0.60;;;11.10;99.90;;;;;;5001924;28;20033;-67
2023/10/28 09:35:53;;;;;;;1.13;0.40;;;11.20;99.90;;;;;;5015861;28;20107;-67
2023/10/28 09:38:20;;;;;;;0.40;0.32;;;11.20;99.90;;;;;;5014886;28;20048;-67
2023/10/28 09:40:49;;;;;;;1.13;0.70;;;11.20;99.90;;;;;;4990011;28;20125;-67
2023/10/28 09:43:15;;;;;;;4.30;0.40;;;11.30;99.90;;;;;;4996549;28;20053;-67
2023/10/28 09:45:49;;;;;;;0.60;0.40;;;11.40;99.90;;;;;;5011013;28;20482;-67
2023/10/28 09:48:19;;;;;;;0.68;0.45;;;11.50;99.90;;;;;;5017631;28;20057;-66
2023/10/28 09:50:48;;;;;;;0.40;0.38;;;11.50;99.90;;;;;;5001237;28;20046;-66
2023/10/28 09:53:22;;;;;;;2.15;0.45;;;11.50;99.90;;;;;;4995701;28;20141;-66
2023/10/28 09:55:52;;;;;;;1.15;0.60;;;11.40;99.90;;;;;;4993240;28;20041;-67
2023/10/28 09:58:24;;;;;;;1.27;0.70;;;11.40;99.90;;;;;;5002036;28;20524;-67
2023/10/28 10:01:19;;;;;;;1.55;0.75;;;11.30;99.90;;;;;;4999299;28;20055;-67
2023/10/28 10:04:02;;;;;;;1.73;0.45;;;11.30;99.90;;;;;;4992795;28;20124;-67
2023/10/28 10:06:27;;;;;;;2.78;0.52;;;11.30;99.90;;;;;;4994859;28;20482;-67
2023/10/28 10:08:55;;;;;;;1.95;0.52;;;11.30;99.90;;;;;;5007377;28;20056;-67
2023/10/28 10:11:25;;;;;;;3.55;0.60;;;11.40;99.90;;;;;;4991879;28;20041;-67
2023/10/28 10:13:52;;;;;;;1.73;0.50;;;11.40;99.90;;;;;;4987282;28;20499;-67
2023/10/28 10:16:58;;;;;;;1.27;0.73;;;11.40;99.90;;;;;;5015774;28;20037;-67
2023/10/28 10:19:35;;;;;;;2.42;0.57;;;11.50;99.90;;;;;;5016615;28;20049;-68
2023/10/28 10:22:06;;;;;;;1.75;0.52;;;11.50;99.90;;;;;;4998588;28;20052;-66
2023/10/28 10:24:33;;;;;;;0.80;0.35;;;11.40;99.90;;;;;;5013313;28;20121;-67
2023/10/28 10:27:00;;;;;;;3.63;0.60;;;11.50;99.90;;;;;;5020546;28;20037;-67
2023/10/28 10:29:28;;;;;;;2.80;0.40;;;11.50;99.90;;;;;;5017090;28;20124;-67
2023/10/28 10:31:55;;;;;;;4.55;0.60;;;11.50;99.90;;;;;;5015786;28;20110;-67
2023/10/28 10:34:39;;;;;;;2.83;0.20;;;11.50;99.90;;;;;;5017028;28;20073;-67
2023/10/28 10:37:06;;;;;;;1.13;0.47;;;11.50;99.90;;;;;;5009828;28;20052;-67
2023/10/28 10:39:46;;;;;;;1.10;0.30;;;11.60;99.90;;;;;;5003816;28;20327;-67
2023/10/28 10:42:12;;;;;;;0.45;0.20;;;11.70;99.90;;;;;;5020405;28;20037;-67
2023/10/28 10:44:39;;;;;;;1.45;0.50;;;11.70;99.90;;;;;;5004562;28;20232;-67
2023/10/28 10:47:08;;;;;;;1.52;0.65;;;11.90;99.90;;;;;;4987724;28;20504;-67
2023/10/28 10:49:35;;;;;;;0.35;0.25;;;11.90;99.90;;;;;;4988983;28;20038;-67
2023/10/28 10:52:03;;;;;;;0.95;0.50;;;12.00;99.90;;;;;;5009713;28;20050;-67
2023/10/28 10:54:30;;;;;;;2.20;0.65;;;12.00;99.90;;;;;;4999872;28;20119;-67
2023/10/28 10:56:56;;;;;;;1.23;0.30;;;12.10;99.90;;;;;;4997619;28;20053;-67
2023/10/28 10:59:22;;;;;;;0.30;0.20;;;12.10;99.90;;;;;;5022677;28;20505;-68
2023/10/28 11:01:48;;;;;;;1.65;0.32;;;12.20;99.90;;;;;;5010410;28;20048;-67
2023/10/28 11:04:14;;;;;;;2.53;0.40;;;12.20;99.90;;;;;;5015977;28;20469;-67
2023/10/28 11:06:39;;;;;;;1.33;0.30;;;12.20;99.90;;;;;;5017652;28;20042;-67
2023/10/28 11:09:06;;;;;;;0.50;0.30;;;12.20;99.90;;;;;;4993713;28;20681;-67
2023/10/28 11:11:38;;;;;;;1.38;0.50;;;12.20;99.90;;;;;;4975381;28;20046;-67
2023/10/28 11:14:05;;;;;;;0.60;0.32;;;12.20;99.90;;;;;;4969133;28;20042;-67
2023/10/28 11:16:32;;;;;;;0.65;0.40;;;12.30;99.90;;;;;;4981991;28;20038;-67
2023/10/28 11:19:02;;;;;;;2.47;0.32;;;12.30;99.90;;;;;;4994370;28;20039;-67
2023/10/28 11:21:30;;;;;;;0.20;0.10;;;12.30;99.90;;;;;;4996214;28;20126;-67
2023/10/28 11:23:56;;;;;;;1.17;0.38;;;12.30;99.90;;;;;;4998305;28;20537;-67
2023/10/28 11:26:24;;;;;;;5.50;0.73;;;12.30;99.90;;;;;;5002493;28;20077;-67
2023/10/28 11:28:49;;;;;;;0.47;0.38;;;12.30;99.90;;;;;;4993522;28;20038;-67
2023/10/28 11:31:20;;;;;;;2.00;0.45;;;12.30;99.90;;;;;;4993591;28;20052;-67
2023/10/28 11:33:46;;;;;;;2.08;0.45;;;12.30;99.90;;;;;;4966641;28;20355;-67
2023/10/28 11:36:12;;;;;;;1.40;0.40;;;12.20;99.90;;;;;;4999076;28;20081;-67
2023/10/28 11:38:38;;;;;;;0.77;0.35;;;12.30;99.90;;;;;;4992800;28;20045;-67
2023/10/28 11:41:05;;;;;;;0.40;0.28;;;12.30;99.90;;;;;;4977492;28;20042;-67
2023/10/28 11:43:31;;;;;;;1.50;0.10;;;12.40;99.90;;;;;;5000837;28;20062;-67
2023/10/28 11:45:57;;;;;;;4.30;0.50;;;12.40;99.90;;;;;;5004656;28;20078;-67
2023/10/28 11:48:22;;;;;;;0.70;0.40;;;12.50;99.90;;;;;;4979419;28;20045;-67
2023/10/28 11:50:48;;;;;;;0.93;0.43;;;12.50;99.90;;;;;;4997917;28;20243;-67
2023/10/28 11:53:21;;;;;;;5.15;0.45;;;12.60;99.90;;;;;;5000737;28;20404;-67
2023/10/28 11:55:47;;;;;;;0.63;0.38;;;12.60;99.90;;;;;;4981004;28;20183;-67
2023/10/28 11:58:13;;;;;;;0.55;0.32;;;12.60;99.90;;;;;;4980050;28;20104;-67
2023/10/28 12:00:39;;;;;;;0.40;0.30;;;12.50;99.90;;;;;;5000520;28;20050;-67
2023/10/28 12:03:04;;;;;;;0.35;0.30;;;12.50;99.90;;;;;;5002321;28;20033;-66
2023/10/28 12:05:31;;;;;;;0.20;0.10;;;12.50;99.90;;;;;;4998768;28;20048;-67
2023/10/28 12:07:57;;;;;;;1.63;0.45;;;12.50;99.90;;;;;;5008698;28;20125;-67
2023/10/28 12:10:22;;;;;;;0.28;0.13;;;12.40;99.90;;;;;;5023662;28;20570;-67
2023/10/28 12:12:48;;;;;;;2.53;0.35;;;12.40;99.90;;;;;;5003394;28;20041;-67
2023/10/28 12:15:14;;;;;;;0.55;0.38;;;12.50;99.90;;;;;;5004895;28;20042;-67
2023/10/28 12:17:39;;;;;;;0.77;0.47;;;12.60;99.90;;;;;;5012438;28;20494;-67
2023/10/28 12:20:09;;;;;;;1.05;0.50;;;12.70;99.90;;;;;;4999211;28;20117;-67
2023/10/28 12:22:37;;;;;;;0.75;0.40;;;12.70;99.90;;;;;;5003083;28;20042;-67
2023/10/28 12:25:05;;;;;;;2.20;0.55;;;12.80;99.90;;;;;;5016554;28;20125;-67
2023/10/28 12:27:32;;;;;;;0.65;0.50;;;12.70;99.90;;;;;;5001641;28;20188;-67
2023/10/28 12:29:58;;;;;;;1.02;0.20;;;12.70;99.90;;;;;;4999159;28;20057;-67
2023/10/28 12:32:24;;;;;;;2.47;0.30;;;12.60;99.90;;;;;;5020827;28;20038;-67
2023/10/28 12:34:50;;;;;;;0.13;0.08;;;12.60;99.90;;;;;;5023376;28;20576;-67
2023/10/28 12:37:16;;;;;;;6.40;0.50;;;12.60;99.90;;;;;;5015151;28;20136;-67
2023/10/28 12:39:42;;;;;;;0.60;0.30;;;12.60;99.90;;;;;;5000887;28;20058;-67
2023/10/28 12:42:08;;;;;;;0.40;0.30;;;12.60;99.90;;;;;;5001385;28;20052;-67
2023/10/28 12:44:33;;;;;;;0.30;0.20;;;12.70;99.90;;;;;;5016525;28;20044;-67
2023/10/28 12:46:59;;;;;;;0.68;0.45;;;12.80;99.90;;;;;;5017481;28;20034;-67
2023/10/28 12:49:25;;;;;;;0.32;0.08;;;12.90;99.90;;;;;;5019379;28;20037;-67
2023/10/28 12:51:53;;;;;;;0.22;0.22;;;13.00;99.90;;;;;;5017832;28;20080;-67